createdAt,value
2023-04-15T00:01:13.256Z,100309.78
2023-04-15T00:03:41.197Z,100296.56
2023-04-15T00:06:08.546Z,100306.88
2023-04-15T00:08:35.722Z,100293.88
2023-04-15T00:11:05.877Z,100291.22
2023-04-15T00:13:34.092Z,100296.47
2023-04-15T00:16:01.673Z,100289.50
2023-04-15T00:18:29.926Z,100292.75
2023-04-15T00:20:57.573Z,100288.00
2023-04-15T00:23:25.069Z,100274.53
2023-04-15T00:25:52.461Z,100276.75
2023-04-15T00:28:19.809Z,100280.38
2023-04-15T00:30:47.330Z,100279.06
2023-04-15T00:33:16.375Z,100281.09
2023-04-15T00:35:43.599Z,100277.38
2023-04-15T00:38:11.518Z,100272.25
2023-04-15T00:40:38.997Z,100277.25
2023-04-15T00:43:07.068Z,100273.81
2023-04-15T00:45:34.275Z,100271.59
2023-04-15T00:48:01.907Z,100267.97
2023-04-15T00:50:29.196Z,100270.97
2023-04-15T00:52:56.828Z,100277.56
2023-04-15T00:55:24.020Z,100275.34
2023-04-15T00:57:52.546Z,100278.13
2023-04-15T01:00:21.155Z,100279.50
2023-04-15T01:02:49.168Z,100276.66
2023-04-15T01:05:18.532Z,100274.34
2023-04-15T01:07:47.158Z,100276.41
2023-04-15T01:10:14.566Z,100269.88
2023-04-15T01:12:42.443Z,100275.88
2023-04-15T01:15:11.031Z,100272.75
2023-04-15T01:17:39.797Z,100271.81
2023-04-15T01:20:10.131Z,100267.25
2023-04-15T01:22:38.305Z,100266.31
2023-04-15T01:25:13.155Z,100261.38
2023-04-15T01:27:42.492Z,100261.31
2023-04-15T01:30:10.512Z,100268.41
2023-04-15T01:32:38.521Z,100262.19
2023-04-15T01:35:06.398Z,100250.13
2023-04-15T01:37:34.162Z,100251.06
2023-04-15T01:40:01.354Z,100254.44
2023-04-15T01:42:28.689Z,100243.34
2023-04-15T01:44:55.917Z,100243.06
2023-04-15T01:47:23.189Z,100244.16
2023-04-15T01:49:50.416Z,100235.94
2023-04-15T01:52:17.641Z,100236.78
2023-04-15T01:54:44.998Z,100237.72
2023-04-15T01:57:12.289Z,100241.63
2023-04-15T01:59:39.422Z,100232.78
2023-04-15T02:02:06.924Z,100237.47
2023-04-15T02:04:34.298Z,100233.72
2023-04-15T02:07:01.730Z,100226.50
2023-04-15T02:09:29.230Z,100224.75
2023-04-15T02:11:56.717Z,100221.69
2023-04-15T02:14:23.934Z,100229.22
2023-04-15T02:16:51.509Z,100221.09
2023-04-15T02:19:18.876Z,100216.41
2023-04-15T02:21:46.271Z,100228.28
2023-04-15T02:24:13.456Z,100224.47
2023-04-15T02:26:40.637Z,100215.69
2023-04-15T02:29:07.870Z,100222.59
2023-04-15T02:31:40.350Z,100220.22
2023-04-15T02:34:08.205Z,100220.38
2023-04-15T02:36:35.404Z,100224.88
2023-04-15T02:39:04.309Z,100226.09
2023-04-15T02:41:31.628Z,100229.66
2023-04-15T02:43:58.918Z,100236.47
2023-04-15T02:46:27.337Z,100236.06
2023-04-15T02:48:54.693Z,100235.28
2023-04-15T02:51:22.821Z,100235.03
2023-04-15T02:53:50.702Z,100237.06
2023-04-15T02:56:19.360Z,100233.91
2023-04-15T02:58:46.703Z,100234.84
2023-04-15T03:01:14.538Z,100236.94
2023-04-15T03:03:42.019Z,100244.06
2023-04-15T03:06:09.448Z,100239.41
2023-04-15T03:08:37.269Z,100244.91
2023-04-15T03:11:05.069Z,100235.88
2023-04-15T03:13:32.230Z,100230.28
2023-04-15T03:15:59.476Z,100227.69
2023-04-15T03:18:26.691Z,100233.13
2023-04-15T03:20:53.836Z,100243.34
2023-04-15T03:23:21.313Z,100234.97
2023-04-15T03:25:48.555Z,100240.84
2023-04-15T03:28:15.787Z,100236.22
2023-04-15T03:30:43.048Z,100229.88
2023-04-15T03:33:10.272Z,100241.22
2023-04-15T03:35:38.040Z,100232.06
2023-04-15T03:38:05.196Z,100240.63
2023-04-15T03:40:32.349Z,100229.09
2023-04-15T03:42:59.499Z,100224.84
2023-04-15T03:45:26.667Z,100228.31
2023-04-15T03:47:53.831Z,100223.81
2023-04-15T03:50:21.162Z,100226.19
2023-04-15T03:52:50.743Z,100221.97
2023-04-15T03:55:18.459Z,100227.59
2023-04-15T03:57:46.443Z,100226.72
2023-04-15T04:00:13.804Z,100226.38
2023-04-15T04:02:41.395Z,100228.09
2023-04-15T04:05:09.277Z,100222.25
2023-04-15T04:07:36.518Z,100226.22
2023-04-15T04:10:03.978Z,100217.25
2023-04-15T04:12:31.170Z,100220.97
2023-04-15T04:14:58.328Z,100211.16
2023-04-15T04:17:25.534Z,100223.69
2023-04-15T04:19:52.679Z,100217.97
2023-04-15T04:22:24.231Z,100222.56
2023-04-15T04:24:51.413Z,100219.69
2023-04-15T04:27:18.543Z,100225.50
2023-04-15T04:29:47.739Z,100223.66
2023-04-15T04:32:15.096Z,100219.88
2023-04-15T04:34:42.311Z,100212.16
2023-04-15T04:37:09.445Z,100216.69
2023-04-15T04:39:36.805Z,100213.66
2023-04-15T04:42:04.058Z,100214.53
2023-04-15T04:44:31.218Z,100214.00
2023-04-15T04:46:58.390Z,100221.59
2023-04-15T04:49:25.637Z,100215.84
2023-04-15T04:51:53.261Z,100211.34
2023-04-15T04:54:21.255Z,100209.16
2023-04-15T04:56:48.384Z,100209.16
2023-04-15T04:59:15.572Z,100207.44
2023-04-15T05:01:42.947Z,100203.16
2023-04-15T05:04:10.419Z,100207.44
2023-04-15T05:06:37.633Z,100210.88
2023-04-15T05:09:04.900Z,100216.56
2023-04-15T05:11:32.141Z,100215.78
2023-04-15T05:14:01.640Z,100208.31
2023-04-15T05:16:28.837Z,100214.84
2023-04-15T05:18:56.049Z,100213.13
2023-04-15T05:21:23.605Z,100213.13
2023-04-15T05:23:50.755Z,100218.13
2023-04-15T05:26:17.916Z,100216.78
2023-04-15T05:28:45.101Z,100218.28
2023-04-15T05:31:12.251Z,100228.38
2023-04-15T05:33:40.483Z,100229.47
2023-04-15T05:36:08.119Z,100224.31
2023-04-15T05:38:35.320Z,100235.00
2023-04-15T05:41:02.576Z,100233.63
2023-04-15T05:43:30.618Z,100240.91
2023-04-15T05:45:57.902Z,100243.06
2023-04-15T05:48:25.102Z,100249.22
2023-04-15T05:50:52.278Z,100243.06
2023-04-15T05:53:19.533Z,100239.91
2023-04-15T05:55:46.773Z,100243.75
2023-04-15T05:58:13.948Z,100239.25
2023-04-15T06:00:41.199Z,100248.69
2023-04-15T06:03:08.480Z,100238.91
2023-04-15T06:05:35.686Z,100239.63
2023-04-15T06:08:03.017Z,100246.91
2023-04-15T06:10:30.836Z,100234.63
2023-04-15T06:12:58.057Z,100255.69
2023-04-15T06:15:25.173Z,100254.59
2023-04-15T06:17:52.385Z,100257.16
2023-04-15T06:20:19.596Z,100252.72
2023-04-15T06:22:46.865Z,100256.03
2023-04-15T06:25:14.114Z,100260.22
2023-04-15T06:27:41.373Z,100267.53
2023-04-15T06:30:09.214Z,100270.84
2023-04-15T06:32:36.617Z,100260.88
2023-04-15T06:35:04.071Z,100263.25
2023-04-15T06:37:32.545Z,100265.88
2023-04-15T06:39:59.683Z,100266.56
2023-04-15T06:42:26.809Z,100264.66
2023-04-15T06:44:53.917Z,100268.09
2023-04-15T06:47:21.076Z,100274.28
2023-04-15T06:49:48.223Z,100266.19
2023-04-15T06:52:16.584Z,100275.59
2023-04-15T06:54:43.796Z,100268.81
2023-04-15T06:57:11.208Z,100267.75
2023-04-15T06:59:38.352Z,100269.94
2023-04-15T07:02:05.962Z,100267.53
2023-04-15T07:04:33.612Z,100261.94
2023-04-15T07:07:02.520Z,100269.13
2023-04-15T07:09:29.727Z,100262.34
2023-04-15T07:11:56.886Z,100267.69
2023-04-15T07:14:24.113Z,100272.50
2023-04-15T07:16:51.331Z,100270.00
2023-04-15T07:19:18.578Z,100271.28
2023-04-15T07:21:45.836Z,100274.13
2023-04-15T07:24:16.779Z,100279.03
2023-04-15T07:26:45.053Z,100271.88
2023-04-15T07:29:12.207Z,100267.13
2023-04-15T07:31:41.585Z,100268.19
2023-04-15T07:34:08.807Z,100269.38
2023-04-15T07:36:36.764Z,100280.53
2023-04-15T07:39:04.355Z,100282.09
2023-04-15T07:41:31.788Z,100283.53
2023-04-15T07:43:59.013Z,100285.47
2023-04-15T07:46:27.450Z,100285.88
2023-04-15T07:48:54.724Z,100286.53
2023-04-15T07:51:22.042Z,100296.78
2023-04-15T07:53:50.325Z,100291.97
2023-04-15T07:56:17.716Z,100288.81
2023-04-15T07:58:44.906Z,100293.16
2023-04-15T08:01:12.495Z,100285.72
2023-04-15T08:03:40.071Z,100294.88
2023-04-15T08:06:07.842Z,100291.97
2023-04-15T08:08:35.092Z,100292.75
2023-04-15T08:11:02.263Z,100302.63
2023-04-15T08:13:29.486Z,100298.13
2023-04-15T08:16:18.986Z,100305.25
2023-04-15T08:18:48.634Z,100305.50
2023-04-15T08:21:17.810Z,100303.00
2023-04-15T08:23:47.285Z,100309.66
2023-04-15T08:26:14.532Z,100314.44
2023-04-15T08:28:43.938Z,100315.88
2023-04-15T08:31:12.508Z,100317.66
2023-04-15T08:33:39.679Z,100312.94
2023-04-15T08:36:07.611Z,100317.72
2023-04-15T08:38:35.000Z,100323.56
2023-04-15T08:41:17.725Z,100319.31
2023-04-15T08:43:54.641Z,100324.63
2023-04-15T08:46:22.717Z,100323.75
2023-04-15T08:48:50.817Z,100330.34
2023-04-15T08:51:18.644Z,100322.94
2023-04-15T08:53:47.466Z,100330.47
2023-04-15T08:56:16.804Z,100330.25
2023-04-15T08:58:45.248Z,100333.56
2023-04-15T09:01:13.406Z,100340.22
2023-04-15T09:03:41.667Z,100337.91
2023-04-15T09:06:09.341Z,100340.78
2023-04-15T09:08:36.502Z,100343.63
2023-04-15T09:11:04.353Z,100340.06
2023-04-15T09:13:31.993Z,100354.59
2023-04-15T09:16:03.905Z,100356.59
2023-04-15T09:18:34.206Z,100357.41
2023-04-15T09:21:16.617Z,100356.84
2023-04-15T09:23:58.401Z,100363.59
2023-04-15T09:26:37.802Z,100360.94
2023-04-15T09:29:15.180Z,100363.66
2023-04-15T09:31:43.409Z,100360.56
2023-04-15T09:34:10.745Z,100360.31
2023-04-15T09:36:57.018Z,100357.59
2023-04-15T09:39:24.175Z,100349.06
2023-04-15T09:42:06.870Z,100355.63
2023-04-15T09:44:34.233Z,100359.06
2023-04-15T09:47:01.796Z,100364.72
2023-04-15T09:49:29.000Z,100358.19
2023-04-15T09:52:06.001Z,100365.94
2023-04-15T09:54:38.731Z,100354.50
2023-04-15T09:57:10.182Z,100357.00
2023-04-15T09:59:37.739Z,100358.34
2023-04-15T10:02:07.432Z,100361.44
2023-04-15T10:04:39.800Z,100369.91
2023-04-15T10:07:09.565Z,100363.63
2023-04-15T10:09:39.158Z,100371.78
2023-04-15T10:12:07.218Z,100367.34
2023-04-15T10:14:38.472Z,100364.28
2023-04-15T10:17:07.645Z,100361.72
2023-04-15T10:19:37.999Z,100365.88
2023-04-15T10:22:06.517Z,100365.34
2023-04-15T10:24:34.203Z,100372.53
2023-04-15T10:27:04.490Z,100372.06
2023-04-15T10:29:31.679Z,100379.25
2023-04-15T10:32:00.593Z,100382.41
2023-04-15T10:34:30.668Z,100379.06
2023-04-15T10:37:03.679Z,100390.88
2023-04-15T10:39:37.342Z,100393.63
2023-04-15T10:42:24.762Z,100399.78
2023-04-15T10:44:57.044Z,100398.78
2023-04-15T10:47:24.241Z,100398.63
2023-04-15T10:49:57.976Z,100410.13
2023-04-15T10:52:28.012Z,100404.22
2023-04-15T10:55:16.047Z,100416.16
2023-04-15T10:57:44.812Z,100419.28
2023-04-15T11:00:17.357Z,100417.72
2023-04-15T11:02:59.649Z,100427.44
2023-04-15T11:05:41.964Z,100428.03
2023-04-15T11:08:11.112Z,100427.53
2023-04-15T11:10:38.148Z,100425.44
2023-04-15T11:13:17.333Z,100434.84
2023-04-15T11:15:46.398Z,100440.13
2023-04-15T11:18:24.621Z,100437.50
2023-04-15T11:20:54.907Z,100433.66
2023-04-15T11:23:44.110Z,100441.16
2023-04-15T11:26:15.314Z,100441.84
2023-04-15T11:28:46.297Z,100449.06
2023-04-15T11:31:19.878Z,100447.75
2023-04-15T11:34:02.170Z,100446.81
2023-04-15T11:36:32.010Z,100446.38
2023-04-15T11:39:00.087Z,100457.06
2023-04-15T11:41:27.484Z,100453.47
2023-04-15T11:43:54.697Z,100457.47
2023-04-15T11:46:28.554Z,100457.78
2023-04-15T11:48:55.761Z,100464.78
2023-04-15T11:51:23.001Z,100456.03
2023-04-15T11:53:51.892Z,100459.28
2023-04-15T11:56:22.504Z,100458.06
2023-04-15T11:58:54.588Z,100464.53
2023-04-15T12:01:33.484Z,100464.59
2023-04-15T12:04:01.564Z,100465.34
2023-04-15T12:06:37.298Z,100457.72
2023-04-15T12:09:07.261Z,100464.59
2023-04-15T12:11:49.520Z,100464.81
2023-04-15T12:14:31.455Z,100462.06
2023-04-15T12:17:04.849Z,100455.81
2023-04-15T12:19:39.952Z,100459.03
2023-04-15T12:22:15.484Z,100457.69
2023-04-15T12:24:47.808Z,100463.69
2023-04-15T12:27:17.145Z,100462.13
2023-04-15T12:29:44.512Z,100460.47
2023-04-15T12:32:14.592Z,100453.88
2023-04-15T12:34:44.849Z,100455.75
2023-04-15T12:37:15.970Z,100466.91
2023-04-15T12:39:48.699Z,100460.84
2023-04-15T12:42:17.959Z,100466.50
2023-04-15T12:44:45.840Z,100466.53
2023-04-15T12:47:13.387Z,100466.50
2023-04-15T12:49:41.110Z,100471.88
2023-04-15T12:52:08.525Z,100470.31
2023-04-15T12:54:36.278Z,100471.66
2023-04-15T12:57:06.799Z,100473.31
2023-04-15T12:59:35.792Z,100477.41
2023-04-15T13:02:04.210Z,100479.59
2023-04-15T13:04:31.878Z,100472.25
2023-04-15T13:06:59.334Z,100478.25
2023-04-15T13:09:27.057Z,100478.44
2023-04-15T13:11:54.529Z,100476.75
2023-04-15T13:14:22.003Z,100484.78
2023-04-15T13:16:49.226Z,100480.97
2023-04-15T13:19:16.378Z,100486.97
2023-04-15T13:21:43.612Z,100484.25
2023-04-15T13:24:10.780Z,100490.13
2023-04-15T13:26:38.185Z,100491.41
2023-04-15T13:29:05.503Z,100494.94
2023-04-15T13:31:32.733Z,100495.84
2023-04-15T13:34:00.020Z,100500.25
2023-04-15T13:36:27.471Z,100491.44
2023-04-15T13:38:54.833Z,100496.00
2023-04-15T13:41:22.047Z,100494.59
2023-04-15T13:43:49.220Z,100499.81
2023-04-15T13:46:16.655Z,100504.53
2023-04-15T13:48:43.878Z,100503.03
2023-04-15T13:51:11.011Z,100500.34
2023-04-15T13:53:39.802Z,100508.03
2023-04-15T13:56:08.867Z,100507.03
2023-04-15T13:58:37.774Z,100515.22
2023-04-15T14:01:07.029Z,100504.34
2023-04-15T14:03:36.083Z,100509.31
2023-04-15T14:06:07.910Z,100510.19
2023-04-15T14:08:35.201Z,100516.09
2023-04-15T14:11:02.549Z,100519.50
2023-04-15T14:13:29.951Z,100525.06
2023-04-15T14:15:57.306Z,100527.44
2023-04-15T14:18:24.506Z,100533.22
2023-04-15T14:20:51.808Z,100533.19
2023-04-15T14:23:19.239Z,100533.19
2023-04-15T14:25:48.324Z,100533.97
2023-04-15T14:28:16.400Z,100539.97
2023-04-15T14:30:43.794Z,100540.91
2023-04-15T14:33:11.024Z,100541.69
2023-04-15T14:35:39.115Z,100544.31
2023-04-15T14:38:10.332Z,100547.53
2023-04-15T14:40:37.525Z,100549.75
2023-04-15T14:43:04.709Z,100555.00
2023-04-15T14:45:31.892Z,100555.84
2023-04-15T14:47:59.839Z,100559.38
2023-04-15T14:50:27.104Z,100565.63
2023-04-15T14:52:54.243Z,100565.53
2023-04-15T14:55:21.361Z,100576.66
2023-04-15T14:57:48.477Z,100577.28
2023-04-15T15:00:16.331Z,100575.56
2023-04-15T15:02:43.935Z,100581.72
2023-04-15T15:05:12.201Z,100582.97
2023-04-15T15:07:43.136Z,100587.91
2023-04-15T15:10:10.530Z,100592.13
2023-04-15T15:12:37.806Z,100592.56
2023-04-15T15:15:15.480Z,100600.94
2023-04-15T15:17:47.408Z,100607.38
2023-04-15T15:20:14.610Z,100606.88
2023-04-15T15:22:41.738Z,100606.50
2023-04-15T15:25:08.932Z,100605.59
2023-04-15T15:27:38.214Z,100611.69
2023-04-15T15:30:06.791Z,100615.53
2023-04-15T15:32:34.428Z,100622.22
2023-04-15T15:35:02.169Z,100620.41
2023-04-15T15:37:31.281Z,100614.50
2023-04-15T15:39:58.810Z,100631.13
2023-04-15T15:42:26.117Z,100631.97
2023-04-15T15:44:53.277Z,100634.06
2023-04-15T15:47:22.462Z,100643.06
2023-04-15T15:49:49.761Z,100637.72
2023-04-15T15:52:17.010Z,100635.22
2023-04-15T15:54:44.481Z,100637.75
2023-04-15T15:57:11.733Z,100643.22
2023-04-15T15:59:41.204Z,100645.88
2023-04-15T16:02:11.820Z,100650.78
2023-04-15T16:04:39.794Z,100650.78
2023-04-15T16:07:07.094Z,100664.78
2023-04-15T16:09:34.497Z,100657.25
2023-04-15T16:12:03.180Z,100662.59
2023-04-15T16:14:30.418Z,100661.91
2023-04-15T16:16:58.093Z,100665.94
2023-04-15T16:19:25.423Z,100666.06
2023-04-15T16:21:52.693Z,100659.94
2023-04-15T16:24:19.926Z,100664.19
2023-04-15T16:26:47.188Z,100665.31
2023-04-15T16:29:14.372Z,100671.94
2023-04-15T16:31:41.637Z,100669.59
2023-04-15T16:34:09.229Z,100676.50
2023-04-15T16:36:36.713Z,100666.13
2023-04-15T16:39:04.675Z,100682.31
2023-04-15T16:41:34.342Z,100683.22
2023-04-15T16:44:03.173Z,100692.13
2023-04-15T16:46:31.560Z,100687.84
2023-04-15T16:48:58.763Z,100690.72
2023-04-15T16:51:26.459Z,100696.72
2023-04-15T16:53:53.585Z,100697.28
2023-04-15T16:56:21.994Z,100696.66
2023-04-15T16:58:49.210Z,100697.13
2023-04-15T17:01:16.541Z,100703.16
2023-04-15T17:03:44.002Z,100704.81
2023-04-15T17:06:11.224Z,100715.31
2023-04-15T17:08:38.559Z,100716.66
2023-04-15T17:11:06.374Z,100714.88
2023-04-15T17:13:33.549Z,100727.53
2023-04-15T17:16:01.784Z,100723.06
2023-04-15T17:18:29.120Z,100728.81
2023-04-15T17:20:56.662Z,100734.13
2023-04-15T17:23:25.950Z,100737.41
2023-04-15T17:25:53.905Z,100741.00
2023-04-15T17:28:21.071Z,100735.59
2023-04-15T17:30:48.318Z,100743.03
2023-04-15T17:33:55.546Z,100753.91
2023-04-15T17:36:02.836Z,100751.34
2023-04-15T17:38:30.250Z,100757.94
2023-04-15T17:40:57.462Z,100761.19
2023-04-15T17:43:24.632Z,100768.63
2023-04-15T17:45:51.876Z,100767.78
2023-04-15T17:48:19.054Z,100771.88
2023-04-15T17:50:46.727Z,100774.75
2023-04-15T17:53:13.942Z,100778.47
2023-04-15T17:55:41.077Z,100781.78
2023-04-15T17:58:08.341Z,100782.44
2023-04-15T18:00:35.604Z,100785.09
2023-04-15T18:03:03.117Z,100787.72
2023-04-15T18:05:30.474Z,100792.03
2023-04-15T18:07:57.650Z,100799.50
2023-04-15T18:10:24.879Z,100794.69
2023-04-15T18:12:52.077Z,100806.06
2023-04-15T18:15:19.278Z,100806.75
2023-04-15T18:17:47.718Z,100812.94
2023-04-15T18:20:15.302Z,100812.34
2023-04-15T18:22:43.543Z,100816.34
2023-04-15T18:25:10.843Z,100819.59
2023-04-15T18:27:39.384Z,100823.16
2023-04-15T18:30:11.826Z,100827.84
2023-04-15T18:32:39.456Z,100826.09
2023-04-15T18:35:07.376Z,100830.16
2023-04-15T18:37:34.743Z,100836.78
2023-04-15T18:40:02.065Z,100844.25
2023-04-15T18:42:29.301Z,100841.06
2023-04-15T18:44:56.522Z,100847.09
2023-04-15T18:47:27.115Z,100853.16
2023-04-15T18:49:54.537Z,100855.13
2023-04-15T18:52:21.791Z,100855.13
2023-04-15T18:54:49.156Z,100851.84
2023-04-15T18:57:23.059Z,100858.31
2023-04-15T19:00:00.066Z,100867.63
2023-04-15T19:02:27.355Z,100869.34
2023-04-15T19:04:54.574Z,100867.56
2023-04-15T19:07:23.029Z,100875.59
2023-04-15T19:09:50.296Z,100880.44
2023-04-15T19:12:17.475Z,100867.72
2023-04-15T19:14:44.685Z,100876.53
2023-04-15T19:17:11.852Z,100886.41
2023-04-15T19:19:39.033Z,100886.94
2023-04-15T19:22:06.618Z,100892.88
2023-04-15T19:24:33.941Z,100895.59
2023-04-15T19:27:01.728Z,100903.75
2023-04-15T19:29:29.175Z,100901.78
2023-04-15T19:31:56.408Z,100898.72
2023-04-15T19:34:24.933Z,100900.41
2023-04-15T19:36:52.185Z,100904.91
2023-04-15T19:39:19.740Z,100902.34
2023-04-15T19:41:47.232Z,100909.72
2023-04-15T19:44:15.098Z,100910.81
2023-04-15T19:46:44.740Z,100913.22
2023-04-15T19:49:12.330Z,100916.75
2023-04-15T19:51:41.536Z,100919.16
2023-04-15T19:54:09.006Z,100923.97
2023-04-15T19:56:36.319Z,100916.81
2023-04-15T19:59:03.885Z,100922.81
2023-04-15T20:01:31.920Z,100922.72
2023-04-15T20:03:59.567Z,100921.88
2023-04-15T20:06:27.635Z,100924.00
2023-04-15T20:08:54.799Z,100927.72
2023-04-15T20:11:22.143Z,100928.50
2023-04-15T20:13:49.373Z,100929.97
2023-04-15T20:16:16.680Z,100938.59
2023-04-15T20:18:43.928Z,100938.53
2023-04-15T20:21:11.169Z,100932.41
2023-04-15T20:23:38.710Z,100936.53
2023-04-15T20:26:09.017Z,100940.16
2023-04-15T20:28:36.238Z,100946.78
2023-04-15T20:31:03.629Z,100950.19
2023-04-15T20:33:30.873Z,100950.00
2023-04-15T20:35:58.688Z,100950.84
2023-04-15T20:38:25.837Z,100953.09
2023-04-15T20:40:53.022Z,100953.09
2023-04-15T20:43:21.791Z,100956.00
2023-04-15T20:45:50.550Z,100958.50
2023-04-15T20:48:19.134Z,100960.53
2023-04-15T20:50:46.478Z,100965.88
2023-04-15T20:53:13.697Z,100966.16
2023-04-15T20:55:41.022Z,100970.16
2023-04-15T20:58:08.307Z,100972.59
2023-04-15T21:00:35.630Z,100973.88
2023-04-15T21:03:03.799Z,100967.91
2023-04-15T21:05:31.090Z,100972.75
2023-04-15T21:07:58.378Z,100974.19
2023-04-15T21:10:25.852Z,100973.63
2023-04-15T21:12:52.985Z,100984.78
2023-04-15T21:15:20.522Z,100983.66
2023-04-15T21:17:47.694Z,100985.28
2023-04-15T21:20:15.170Z,100983.34
2023-04-15T21:22:42.833Z,100980.28
2023-04-15T21:25:10.323Z,100985.69
2023-04-15T21:27:37.689Z,100990.97
2023-04-15T21:30:05.688Z,100992.63
2023-04-15T21:32:32.944Z,100994.13
2023-04-15T21:35:00.155Z,101001.13
2023-04-15T21:37:27.399Z,101007.66
2023-04-15T21:39:54.612Z,101008.31
2023-04-15T21:42:21.808Z,101017.97
2023-04-15T21:44:48.972Z,101011.72
2023-04-15T21:47:16.215Z,101022.47
2023-04-15T21:49:43.529Z,101029.06
2023-04-15T21:52:10.719Z,101023.75
2023-04-15T21:54:38.108Z,101032.28
2023-04-15T21:57:05.336Z,101034.19
2023-04-15T21:59:32.521Z,101032.13
2023-04-15T22:01:59.872Z,101046.81
2023-04-15T22:04:27.314Z,101030.84
2023-04-15T22:06:57.903Z,101037.22
2023-04-15T22:09:25.118Z,101036.06
2023-04-15T22:11:52.272Z,101035.06
2023-04-15T22:14:19.444Z,101049.63
2023-04-15T22:16:46.719Z,101057.59
2023-04-15T22:19:13.926Z,101048.09
2023-04-15T22:21:41.108Z,101062.97
2023-04-15T22:24:32.602Z,101054.38
2023-04-15T22:26:55.708Z,101062.25
2023-04-15T22:29:22.875Z,101067.59
2023-04-15T22:31:50.174Z,101067.16
2023-04-15T22:34:21.354Z,101063.88
2023-04-15T22:36:52.719Z,101069.84
2023-04-15T22:39:20.453Z,101072.34
2023-04-15T22:41:47.904Z,101076.31
2023-04-15T22:44:15.092Z,101070.53
2023-04-15T22:46:43.140Z,101077.38
2023-04-15T22:49:10.761Z,101081.34
2023-04-15T22:51:38.265Z,101084.91
2023-04-15T22:54:05.555Z,101085.53
2023-04-15T22:56:32.781Z,101091.13
2023-04-15T22:58:59.969Z,101101.47
2023-04-15T23:01:27.263Z,101092.59
2023-04-15T23:03:55.925Z,101106.53
2023-04-15T23:06:27.207Z,101102.09
2023-04-15T23:08:54.549Z,101120.00
2023-04-15T23:11:21.981Z,101117.19
2023-04-15T23:13:50.547Z,101108.59
2023-04-15T23:16:17.760Z,101114.22
2023-04-15T23:18:45.013Z,101124.69
2023-04-15T23:21:12.197Z,101126.25
2023-04-15T23:23:39.553Z,101124.38
2023-04-15T23:26:06.759Z,101123.59
2023-04-15T23:28:33.928Z,101118.81
2023-04-15T23:31:01.135Z,101124.53
2023-04-15T23:33:28.304Z,101120.66
2023-04-15T23:35:55.496Z,101126.50
2023-04-15T23:38:22.629Z,101134.78
2023-04-15T23:40:51.096Z,101129.97
2023-04-15T23:43:18.263Z,101130.09
2023-04-15T23:45:45.540Z,101125.56
2023-04-15T23:48:12.726Z,101129.38
2023-04-15T23:50:39.928Z,101135.56
2023-04-15T23:53:07.129Z,101135.94
2023-04-15T23:55:35.101Z,101136.25
2023-04-15T23:58:02.360Z,101144.03
